Terminal Aerodrome Forecast
Issued by NWS Bismarck, ND

Home | Current Version | Previous Version | Text Only | Print | Product List | Glossary Off
Versions: 1 2 3 4 5 6 7 8 9 10 11 12 13 14

000
FTUS43 KBIS 221700
TAFBIS
TAF
KBIS 221738Z 2218/2318 12007KT P6SM BKN100
     FM230000 20012KT P6SM VCSH SCT050 BKN080 OVC150
     FM230900 25014KT P6SM SCT035 BKN050
     FM231600 29018G32KT P6SM VCSH BKN025 OVC040=

USA.gov is the U.S. government's official web portal to all federal, state and local government web resources and services.